SNOW

Not for real navigation. The accuracy of this data is not assured See disclaimer for more information

No stations matching search criteria

ICAO NAME COUNTRY WIND Kt GUST Kt VIS m TEMP/DEW C BARO METAR
CYRB Resolute, N. W. T. Canada 7 0 200 0/0 29.88 CYRB 161200Z 15007KT 0.125SM R35/1100FT/N FZDZ -SN VV002 M00/M00 A2988 RMK FG8 SLP126
SCRM 30 0 1200 0/0 29.06 SCRM 161200Z 29030KT 1200 SN OVC002 M00/M00 Q0984 NOSIG